Bookmark and Share
Track history (hours):
 

Grand Ruby

Last reported at 2014-Apr-23 17:05 UTC. Time now 2014-Apr-23 19:05 UTC.
Position N 37°17' E 006°34'.

Length 195 m; draft 8.7 m.

Type: Cargo ship. MMSI: 372399000.

NotesDate/timePositionNaut miles runAvg speedWind from/ knotsBaromVisibWave heightAir tempDewpointWater temp
2014-Apr-23 17:05N 37°17' E 006°34'18217.1
2014-Apr-23 06:25N 37°30' E 010°23'5117.2
2014-Apr-23 03:26N 37°04' E 011°19'1517.2
2014-Apr-23 02:33N 36°56' E 011°35'1817.8
2014-Apr-23 01:34N 36°46' E 011°53'1717.2
2014-Apr-23 00:34N 36°34' E 012°08'1717.0
2014-Apr-22 23:33N 36°22' E 012°23'12317.0
2014-Apr-22 16:18N 34°39' E 013°48'1919.2
2014-Apr-22 15:19N 34°23' E 013°59'5319.1
2014-Apr-22 12:33N 33°37' E 014°31'2819.0
2014-Apr-22 11:06N 33°13' E 014°47'1019.1
2014-Apr-22 10:33N 33°03' E 014°52'45 6.1
2014-Apr-22 03:06N 32°22' E 015°13'0 0.0
2014-Apr-22 02:33N 32°22' E 015°13'0 0.0
2014-Apr-22 01:33N 32°22' E 015°13'0 0.0
2014-Apr-22 00:33N 32°22' E 015°13'0 0.0
2014-Apr-21 23:15N 32°22' E 015°13'0 0.0
2014-Apr-21 17:33N 32°22' E 015°13'0 0.0
2014-Apr-21 16:27N 32°22' E 015°13'0 0.0
2014-Apr-21 15:24N 32°22' E 015°13'0 0.0
2014-Apr-21 14:30N 32°22' E 015°13'0 0.0
2014-Apr-21 13:33N 32°22' E 015°13'0 0.0
2014-Apr-21 12:33N 32°22' E 015°13'0 0.0
2014-Apr-21 11:33N 32°22' E 015°13'  

Dump ship's entire track history

sailing weather and tide predictions

Grand Ruby — 3EIU3 — position and weather